createdAt,value
2023-02-06T00:03:47.827Z,27.9209
2023-02-06T00:18:49.741Z,27.8949
2023-02-06T00:33:51.594Z,26.3609
2023-02-06T00:48:53.422Z,27.4498
2023-02-06T01:03:55.255Z,27.6188
2023-02-06T01:18:57.107Z,27.1929
2023-02-06T01:33:59.008Z,27.3619
2023-02-06T01:49:00.960Z,27.6479
2023-02-06T02:04:02.824Z,27.0728
2023-02-06T02:19:04.700Z,26.6407
2023-02-06T02:34:06.554Z,27.3068
2023-02-06T02:49:08.414Z,27.599
2023-02-06T03:04:10.330Z,26.8159
2023-02-06T03:19:12.208Z,27.885
2023-02-06T03:34:14.064Z,27.3359
2023-02-06T03:49:15.900Z,26.3485
2023-02-06T04:04:17.811Z,27.7098
2023-02-06T04:19:19.726Z,26.702
2023-02-06T04:34:21.737Z,26.8227
2023-02-06T04:49:23.630Z,27.6188
2023-02-06T05:04:25.572Z,26.7998
2023-02-06T05:19:27.535Z,27.0988
2023-02-06T05:34:29.407Z,27.56
2023-02-06T05:49:31.288Z,27.157
2023-02-06T06:04:33.280Z,27.2839
2023-02-06T06:19:35.237Z,27.352
2023-02-06T06:34:37.207Z,27.092
2023-02-06T06:49:39.142Z,27.4399
2023-02-06T07:04:41.139Z,27.0239
2023-02-06T07:19:43.060Z,26.9657
2023-02-06T07:34:44.985Z,27.027
2023-02-06T07:49:46.939Z,26.9719
2023-02-06T08:04:48.872Z,26.0458
2023-02-06T08:19:50.773Z,26.4253
2023-02-06T08:34:52.689Z,25.8143
2023-02-06T08:49:54.606Z,25.2522
2023-02-06T09:04:56.549Z,24.8331
2023-02-06T09:19:58.435Z,24.3261
2023-02-06T09:35:00.320Z,24.9922
2023-02-06T09:50:02.443Z,25.1092
2023-02-06T10:05:04.340Z,25.0733
2023-02-06T10:20:06.271Z,24.6344
2023-02-06T10:35:08.252Z,25.0603
2023-02-06T10:50:10.136Z,25.2943
2023-02-06T11:05:12.065Z,24.4233
2023-02-06T11:20:13.977Z,24.6282
2023-02-06T11:35:15.938Z,24.4103
2023-02-06T11:50:17.855Z,24.4685
2023-02-06T12:05:19.747Z,24.2283
2023-02-06T12:20:21.639Z,25.3531
2023-02-06T12:35:23.612Z,24.5564
2023-02-06T12:50:25.492Z,24.1955
2023-02-06T13:05:27.417Z,25.1903
2023-02-06T13:20:30.397Z,25.0826
2023-02-06T13:35:33.366Z,24.2314
2023-02-06T13:50:35.274Z,24.7545
2023-02-06T14:05:37.412Z,24.6672
2023-02-06T14:20:39.464Z,24.3224
2023-02-06T14:35:41.325Z,24.4623
2023-02-06T14:50:43.276Z,25.077
2023-02-06T15:05:45.172Z,24.3583
2023-02-06T15:20:47.115Z,24.1534
2023-02-06T15:35:49.123Z,25.6224
2023-02-06T15:50:51.040Z,24.8554
2023-02-06T16:05:52.951Z,25.805
2023-02-06T16:20:54.885Z,26.2433
2023-02-06T16:35:56.790Z,26.026
2023-02-06T16:50:58.671Z,25.3989
2023-02-06T17:06:02.151Z,26.0322
2023-02-06T17:21:04.234Z,26.026
2023-02-06T17:36:07.872Z,25.8601
2023-02-06T17:51:09.946Z,25.727
2023-02-06T18:06:11.877Z,26.2272
2023-02-06T18:21:13.961Z,25.7499
2023-02-06T18:36:15.928Z,26.143
2023-02-06T18:51:17.833Z,26.039
2023-02-06T19:06:19.777Z,25.8861
2023-02-06T19:21:21.669Z,26.104
2023-02-06T19:36:23.588Z,26.234
2023-02-06T19:51:25.531Z,25.545
2023-02-06T20:06:27.495Z,26.0588
2023-02-06T20:21:29.567Z,26.208
2023-02-06T20:36:31.445Z,26.494
2023-02-06T20:51:33.356Z,25.8601
2023-02-06T21:06:35.245Z,26.2959
2023-02-06T21:21:37.150Z,25.6948
2023-02-06T21:36:39.051Z,26.728
2023-02-06T21:51:40.953Z,25.662
2023-02-06T22:06:42.828Z,26.2891
2023-02-06T22:21:44.751Z,26.546
2023-02-06T22:36:46.662Z,26.6141
2023-02-06T22:51:48.625Z,26.7862
2023-02-06T23:06:50.582Z,25.6168
2023-02-06T23:21:52.461Z,25.8508
2023-02-06T23:36:54.499Z,26.8611
2023-02-06T23:51:56.435Z,26.3671
